SBCFSBPS

Guest
Details From SBCF - Tancredo Neves
To SBPS - Porto Seguro
Flight Number -
Tags Generated
Created
Modified
Stats Distance 339 nm / 628 km
Max Altitude 0 ft / 0 m
Waypoints 3
Social Downloads 4
Likes 0
Share VATSIM

Download

Looking for another format? Having issues loading an existing format? Contact us
Advertisement - Login to hide

Notes

Generated

Route

SBCF SGR SBPS

ID Type Via Altitude Latitude Longitude Leg Dist Tot Dist Heading (true) Name
O SBCF APT - 0 ft / 0 m -19.62356˚ -43.97828˚ - 0 nm - -
SGR NDB - 0 ft / 0 m -16.44167˚ -39.08250˚ 338 nm 338 nm 56° / 55° PORTO SEGURO NDB
O SBPS APT - 0 ft / 0 m -16.44108˚ -39.08989˚ 0 nm 339 nm 275° / 275° -

Altitude Profile

Advertisement - Login to hide

Weather


0- 5 10 15 20 25 30 35+ Temperature / ° C

Clouds and Precipitation
Forecast for 2017-12-17 00:00 UTC. Updated an hour ago

Ground ~20,000 ft ~40,000 ft Winds

SBCF

Details ICAO SBCF (CNF)
Name Tancredo Neves
Region Brazil
Timezone America/Sao_Paulo (UTC-2.0)
Stats Elevation 2,715 ft / 828 m (AMSL)
Location -19.633758° -43.968854°
Runways 1
Magnetic Variation 22.805° W

METAR

SBCF 170000Z 22002KT 9999 FEW030 BKN100 19/18 Q1019

Decode

TAF

TAF SBCF 161400Z 1618/1718 01005KT 9999 BKN035 FEW040TCU TX27/1618Z TN20/1709Z PROB30 1618/1622 20015G25KT 4000 TSRA BKN010 FEW038CB BECMG 1622/1624 09003KT 9999 SCT010 FEW035TCU BECMG 1700/1702 SCT015 BECMG 1705/1707 BKN015 BECMG 1712/1714 08004KT 9999 BKN030 FEW035TCU RMK PDC

Decode

Departure Runways

ID Width Length Bearing (true) Bearing (mag) Surface Threshold Offset Overrun Length
16 148 ft / 45 m 9,872 ft / 3,009 m 138.97° 161.77° Asphalt 0 ft / 0 m 203 ft / 62 m
34 148 ft / 45 m 9,872 ft / 3,009 m 318.96° 341.76° Asphalt 0 ft / 0 m 203 ft / 62 m

SBPS

Details ICAO SBPS (BPS)
Name Porto Seguro
Region Brazil
Timezone America/Bahia (UTC-3.0)
Stats Elevation 168 ft / 51 m (AMSL)
Location -16.438625° -39.080917°
Runways 1
Magnetic Variation 23.868° W

METAR

SBPS 170000Z 09006KT 9999 FEW015 BKN090 25/23 Q1016

Decode

TAF

TAF TAF SBPS 161500Z 1618/1718 07007KT 7000 SCT020 SCT040 TN23/1708Z TX28/1715Z TEMPO 1700/1706 6000 SHRA BKN016 RMK PCH

Decode

Destination Runways

ID Width Length Bearing (true) Bearing (mag) Surface Threshold Offset Overrun Length
10 148 ft / 45 m 6,532 ft / 1,991 m 74.06° 97.93° Asphalt 0 ft / 0 m 195 ft / 59 m
28 148 ft / 45 m 6,532 ft / 1,991 m 254.06° 277.93° Asphalt 0 ft / 0 m 0 ft / 0 m